Pagrindinis puslapis
METAR-TAF:

METAR-TAF

Oro uostai :

Numėjos Magentos oro uostas

Numėja, Naujoji Kaledonija

platuma: 22-15-30S, ilguma: 166-28-22E, Aukštis: 3 m

METAR: trūkstamas

Laikas: 13:34 (02:34 UTC)

Prognozė

Ataskaita buvo paskelbta 9 valandos ir 34 minutes, ne 17:00 UTC
Prognozė galioja nuo 08 metu 18 UTC su 09 metu 18 UTC
Vėjas 14 kt iš Rytų/Pietryčių
Matomumas 10 km arba daugiau
Išsisklaidę debesys ne aukštis 3000 ft
Išsisklaidę debesys ne aukštis 6000 ft

TAF: NWWM 081700Z 0818/0918 11014KT 9999 SCT030 SCT060

Orai ataskaitas ir orų prognozės (METAR, TAF).

turimą stotys yra geltonos ir raudonos taškus žemėlapyje.

Perkelti pele per norėdami pamatyti stoties vardą.

Tada spustelėkite, norėdami matyti oro stebėjimo ir prognozės.

Norėdami pakeisti žemėlapį: spustelėkite ant žalios mygtukų su juodo kryžiaus žemyn,; žalią mygtuką su brūkšneliu, jei norite nutolinti; arba žalių rodyklių gretimoms žemėlapius.


METAR-TAF: